createdAt,value
2018-07-27T00:02:29.581Z,99.90
2018-07-27T00:05:03.130Z,99.90
2018-07-27T00:10:59.082Z,99.90
2018-07-27T00:20:01.641Z,99.90
2018-07-27T00:22:31.765Z,99.90
2018-07-27T00:25:01.932Z,99.90
2018-07-27T00:27:33.518Z,99.90
2018-07-27T00:30:28.258Z,99.90
2018-07-27T00:33:00.644Z,99.90
2018-07-27T00:38:38.395Z,99.90
2018-07-27T00:44:33.346Z,99.90
2018-07-27T00:50:35.570Z,99.90
2018-07-27T00:59:45.322Z,99.90
2018-07-27T01:05:24.211Z,99.90
2018-07-27T01:09:34.470Z,99.90
2018-07-27T01:15:12.257Z,99.90
2018-07-27T01:17:42.392Z,99.90
2018-07-27T01:20:12.548Z,99.90
2018-07-27T01:22:43.496Z,99.90
2018-07-27T01:25:29.098Z,99.90
2018-07-27T01:34:14.867Z,99.90
2018-07-27T01:36:46.499Z,99.90
2018-07-27T01:42:24.240Z,99.90
2018-07-27T01:44:57.950Z,99.90
2018-07-27T01:49:08.471Z,99.90
2018-07-27T01:51:39.157Z,99.90
2018-07-27T01:54:17.118Z,99.90
2018-07-27T02:00:07.823Z,99.90
2018-07-27T02:02:38.663Z,99.90
2018-07-27T02:05:08.881Z,99.90
2018-07-27T02:07:39.072Z,99.90
2018-07-27T02:10:09.252Z,99.90
2018-07-27T02:12:39.745Z,99.90
2018-07-27T02:15:15.920Z,99.90
2018-07-27T02:17:46.044Z,99.90
2018-07-27T02:20:16.163Z,99.90
2018-07-27T02:22:46.381Z,99.90
2018-07-27T02:25:24.985Z,99.90
2018-07-27T02:31:28.005Z,99.90
2018-07-27T02:44:01.740Z,99.90
2018-07-27T02:56:07.876Z,99.90
2018-07-27T02:58:38.949Z,99.90
2018-07-27T03:01:10.216Z,99.90
2018-07-27T03:03:41.028Z,99.90
2018-07-27T03:07:32.248Z,99.90
2018-07-27T03:19:27.758Z,99.90
2018-07-27T03:21:57.876Z,99.90
2018-07-27T03:27:46.664Z,99.90
2018-07-27T03:30:17.148Z,99.90
2018-07-27T03:32:48.095Z,99.90
2018-07-27T03:38:36.845Z,99.90
2018-07-27T03:41:06.976Z,99.90
2018-07-27T03:44:02.594Z,99.90
2018-07-27T03:46:32.840Z,99.90
2018-07-27T03:49:02.936Z,99.90
2018-07-27T03:51:33.076Z,99.90
2018-07-27T03:54:03.233Z,99.90
2018-07-27T03:56:33.348Z,99.90
2018-07-27T03:59:03.570Z,99.90
2018-07-27T04:01:33.672Z,99.90
2018-07-27T04:04:03.834Z,99.90
2018-07-27T04:06:33.941Z,99.90
2018-07-27T04:09:06.112Z,99.90
2018-07-27T04:11:36.230Z,99.90
2018-07-27T04:14:06.413Z,99.90
2018-07-27T04:16:36.535Z,99.90
2018-07-27T04:19:06.796Z,99.90
2018-07-27T04:21:36.912Z,99.90
2018-07-27T04:24:07.094Z,99.90
2018-07-27T04:26:37.192Z,99.90
2018-07-27T04:29:07.288Z,99.90
2018-07-27T04:31:37.397Z,99.90
2018-07-27T04:34:07.547Z,99.90
2018-07-27T04:36:37.722Z,99.90
2018-07-27T04:39:10.244Z,99.90
2018-07-27T04:41:40.397Z,99.90
2018-07-27T04:44:10.516Z,99.90
2018-07-27T04:46:40.675Z,99.90
2018-07-27T04:49:10.821Z,99.90
2018-07-27T04:51:41.024Z,99.90
2018-07-27T04:54:11.162Z,99.90
2018-07-27T04:56:41.368Z,99.90
2018-07-27T04:59:11.437Z,99.90
2018-07-27T05:01:41.540Z,99.90
2018-07-27T05:04:11.645Z,99.90
2018-07-27T05:06:41.751Z,99.60
2018-07-27T05:09:16.976Z,98.90
2018-07-27T05:11:47.118Z,97.60
2018-07-27T05:14:17.168Z,97.20
2018-07-27T05:16:47.350Z,96.70
2018-07-27T05:19:17.537Z,96.20
2018-07-27T05:21:47.643Z,95.00
2018-07-27T05:24:18.771Z,93.60
2018-07-27T05:26:48.936Z,92.20
2018-07-27T05:29:19.026Z,91.10
2018-07-27T05:31:49.272Z,90.10
2018-07-27T05:34:19.404Z,86.40
2018-07-27T05:36:49.492Z,84.80
2018-07-27T05:39:19.605Z,84.20
2018-07-27T05:41:49.749Z,81.60
2018-07-27T05:44:19.844Z,81.40
2018-07-27T05:46:49.988Z,80.10
2018-07-27T05:49:20.056Z,77.60
2018-07-27T05:51:50.212Z,74.80
2018-07-27T05:54:20.316Z,72.40
2018-07-27T05:56:50.471Z,71.90
2018-07-27T05:59:20.645Z,72.60
2018-07-27T06:04:27.872Z,73.20
2018-07-27T06:06:57.989Z,71.60
2018-07-27T06:09:28.080Z,68.00
2018-07-27T06:11:58.328Z,66.60
2018-07-27T06:14:28.430Z,67.50
2018-07-27T06:16:58.637Z,68.10
2018-07-27T06:19:28.742Z,66.50
2018-07-27T06:21:58.836Z,66.50
2018-07-27T06:24:45.777Z,65.50
2018-07-27T06:27:16.573Z,62.50
2018-07-27T06:29:47.408Z,61.10
2018-07-27T06:32:18.140Z,61.30
2018-07-27T06:34:48.267Z,60.30
2018-07-27T06:37:18.545Z,59.60
2018-07-27T06:39:48.646Z,58.80
2018-07-27T06:42:18.785Z,58.50
2018-07-27T06:44:48.871Z,56.00
2018-07-27T06:47:18.996Z,58.10
2018-07-27T06:49:49.085Z,60.10
2018-07-27T06:52:19.212Z,59.60
2018-07-27T06:54:49.268Z,58.90
2018-07-27T06:57:19.378Z,55.90
2018-07-27T06:59:49.504Z,57.00
2018-07-27T07:02:19.613Z,56.30
2018-07-27T07:04:49.760Z,55.70
2018-07-27T07:07:19.897Z,55.50
2018-07-27T07:09:49.992Z,55.00
2018-07-27T07:12:20.300Z,54.90
2018-07-27T07:14:50.422Z,53.70
2018-07-27T07:17:20.504Z,52.80
2018-07-27T07:19:50.741Z,50.70
2018-07-27T07:22:20.936Z,51.10
2018-07-27T07:24:51.373Z,52.40
2018-07-27T07:27:21.594Z,53.90
2018-07-27T07:32:21.541Z,50.70
2018-07-27T07:34:51.695Z,50.50
2018-07-27T07:37:22.029Z,51.50
2018-07-27T07:39:52.363Z,50.20
2018-07-27T07:42:22.512Z,50.40
2018-07-27T07:44:52.609Z,49.50
2018-07-27T07:47:22.943Z,50.40
2018-07-27T07:49:53.084Z,52.70
2018-07-27T07:52:23.278Z,53.40
2018-07-27T07:54:53.452Z,52.90
2018-07-27T07:57:23.691Z,53.20
2018-07-27T07:59:53.760Z,50.00
2018-07-27T08:02:23.992Z,49.00
2018-07-27T08:04:54.112Z,51.90
2018-07-27T08:07:24.228Z,48.30
2018-07-27T08:09:54.628Z,48.00
2018-07-27T08:12:25.006Z,48.00
2018-07-27T08:14:55.164Z,46.90
2018-07-27T08:17:25.386Z,47.40
2018-07-27T08:19:55.472Z,44.20
2018-07-27T08:22:25.592Z,45.00
2018-07-27T08:24:56.052Z,45.50
2018-07-27T08:27:26.176Z,44.30
2018-07-27T08:29:56.449Z,46.10
2018-07-27T08:32:26.546Z,43.30
2018-07-27T08:34:56.708Z,45.10
2018-07-27T08:37:26.920Z,45.30
2018-07-27T08:39:57.134Z,46.00
2018-07-27T08:42:27.561Z,44.40
2018-07-27T08:47:27.448Z,45.80
2018-07-27T08:49:57.779Z,45.60
2018-07-27T08:52:27.958Z,46.30
2018-07-27T08:54:58.060Z,45.60
2018-07-27T08:57:28.182Z,44.60
2018-07-27T08:59:58.259Z,46.50
2018-07-27T09:02:28.416Z,46.60
2018-07-27T09:04:58.588Z,46.50
2018-07-27T09:07:28.668Z,46.60
2018-07-27T09:09:58.884Z,46.40
2018-07-27T09:12:28.963Z,45.70
2018-07-27T09:14:59.252Z,47.00
2018-07-27T09:17:29.618Z,45.30
2018-07-27T09:20:00.636Z,46.00
2018-07-27T09:22:30.964Z,45.00
2018-07-27T09:25:01.460Z,46.90
2018-07-27T09:27:31.394Z,49.30
2018-07-27T09:30:01.503Z,50.50
2018-07-27T09:32:31.604Z,48.70
2018-07-27T09:35:01.767Z,50.80
2018-07-27T09:37:31.876Z,50.30
2018-07-27T09:40:02.013Z,50.30
2018-07-27T09:42:32.104Z,50.20
2018-07-27T09:45:02.399Z,49.10
2018-07-27T09:47:32.546Z,49.10
2018-07-27T09:50:02.688Z,51.70
2018-07-27T09:52:32.763Z,49.50
2018-07-27T09:55:02.987Z,48.90
2018-07-27T09:57:33.334Z,48.40
2018-07-27T10:00:05.054Z,48.80
2018-07-27T10:02:35.158Z,51.80
2018-07-27T10:05:05.725Z,50.70
2018-07-27T10:07:36.172Z,51.50
2018-07-27T10:10:06.848Z,52.00
2018-07-27T10:12:37.344Z,51.50
2018-07-27T10:15:08.441Z,48.30
2018-07-27T10:17:38.611Z,51.00
2018-07-27T10:20:09.457Z,52.60
2018-07-27T10:22:39.958Z,49.60
2018-07-27T10:25:10.418Z,48.80
2018-07-27T10:27:40.550Z,52.60
2018-07-27T10:30:10.640Z,52.00
2018-07-27T10:32:40.852Z,48.20
2018-07-27T10:35:11.088Z,51.70
2018-07-27T10:37:41.400Z,51.80
2018-07-27T10:40:11.816Z,51.50
2018-07-27T10:42:41.916Z,49.50
2018-07-27T10:45:12.045Z,51.60
2018-07-27T10:47:42.286Z,49.60
2018-07-27T10:50:12.452Z,47.50
2018-07-27T10:52:42.588Z,46.80
2018-07-27T10:55:12.705Z,45.30
2018-07-27T10:57:42.820Z,50.30
2018-07-27T11:00:14.787Z,46.90
2018-07-27T11:02:44.898Z,50.30
2018-07-27T11:05:14.984Z,45.30
2018-07-27T11:07:45.140Z,48.90
2018-07-27T11:10:15.244Z,46.30
2018-07-27T11:12:45.351Z,44.70
2018-07-27T11:15:15.578Z,47.80
2018-07-27T11:17:45.723Z,44.80
2018-07-27T11:20:15.841Z,47.30
2018-07-27T11:22:45.923Z,44.70
2018-07-27T11:25:16.021Z,44.80
2018-07-27T11:27:46.096Z,45.90
2018-07-27T11:30:16.176Z,48.00
2018-07-27T11:32:46.393Z,44.50
2018-07-27T11:35:16.476Z,47.00
2018-07-27T11:37:46.588Z,44.70
2018-07-27T11:40:16.744Z,44.90
2018-07-27T11:42:46.860Z,45.00
2018-07-27T11:45:16.978Z,46.00
2018-07-27T11:47:47.178Z,46.00
2018-07-27T11:50:17.444Z,47.00
2018-07-27T11:52:47.808Z,48.80
2018-07-27T11:55:18.293Z,47.60
2018-07-27T11:57:48.776Z,49.10
2018-07-27T12:02:48.580Z,45.60
2018-07-27T12:05:18.648Z,44.90
2018-07-27T12:07:48.737Z,45.40
2018-07-27T12:10:18.880Z,47.20
2018-07-27T12:12:48.952Z,49.40
2018-07-27T12:15:19.253Z,50.90
2018-07-27T12:17:49.108Z,52.30
2018-07-27T12:20:19.209Z,53.80
2018-07-27T12:22:49.280Z,53.50
2018-07-27T12:25:19.408Z,53.90
2018-07-27T12:27:49.468Z,54.80
2018-07-27T12:30:19.550Z,56.60
2018-07-27T12:32:49.620Z,56.00
2018-07-27T12:35:19.820Z,56.40
2018-07-27T12:37:49.924Z,57.10
2018-07-27T12:40:20.435Z,55.40
2018-07-27T12:45:21.008Z,56.60
2018-07-27T12:47:52.124Z,58.60
2018-07-27T12:50:22.812Z,60.60
2018-07-27T12:52:53.287Z,61.20
2018-07-27T12:55:23.895Z,62.60
2018-07-27T12:57:54.526Z,67.30
2018-07-27T13:00:24.960Z,73.00
2018-07-27T13:02:55.320Z,78.40
2018-07-27T13:05:25.436Z,84.60
2018-07-27T13:07:56.321Z,88.10
2018-07-27T13:12:57.132Z,90.00
2018-07-27T13:15:27.845Z,90.10
2018-07-27T13:17:57.996Z,89.60
2018-07-27T13:20:54.101Z,90.10
2018-07-27T13:23:25.412Z,89.40
2018-07-27T13:28:46.224Z,88.50
2018-07-27T13:31:16.327Z,86.80
2018-07-27T13:34:51.108Z,85.80
2018-07-27T13:37:22.648Z,83.80
2018-07-27T13:39:56.115Z,82.70
2018-07-27T13:42:27.821Z,81.10
2018-07-27T13:44:59.520Z,80.90
2018-07-27T13:47:29.827Z,81.70
2018-07-27T13:50:00.655Z,82.50
2018-07-27T13:52:31.113Z,81.70
2018-07-27T13:55:01.193Z,81.30
2018-07-27T13:57:31.981Z,80.90
2018-07-27T14:00:02.071Z,82.70
2018-07-27T14:02:32.253Z,81.10
2018-07-27T14:05:02.358Z,81.70
2018-07-27T14:07:33.281Z,82.70
2018-07-27T14:10:03.419Z,82.60
2018-07-27T14:12:33.587Z,81.80
2018-07-27T14:15:03.713Z,83.10
2018-07-27T14:17:33.913Z,83.80
2018-07-27T14:20:04.068Z,84.10
2018-07-27T14:22:34.182Z,85.10
2018-07-27T14:25:04.379Z,85.60
2018-07-27T14:27:34.492Z,86.00
2018-07-27T14:30:05.048Z,84.70
2018-07-27T14:32:35.183Z,84.90
2018-07-27T14:37:35.445Z,83.50
2018-07-27T14:40:05.986Z,83.10
2018-07-27T14:42:36.564Z,83.60
2018-07-27T14:45:06.902Z,83.40
2018-07-27T14:47:36.988Z,83.80
2018-07-27T14:50:07.505Z,84.30
2018-07-27T14:55:07.612Z,84.80
2018-07-27T14:57:38.125Z,85.70
2018-07-27T15:00:08.792Z,86.10
2018-07-27T15:02:39.170Z,87.10
2018-07-27T15:05:09.650Z,87.30
2018-07-27T15:07:39.930Z,87.40
2018-07-27T15:10:10.582Z,88.60
2018-07-27T15:12:40.800Z,87.60
2018-07-27T15:15:11.085Z,87.10
2018-07-27T15:17:41.512Z,87.60
2018-07-27T15:20:11.745Z,87.50
2018-07-27T15:22:41.976Z,87.30
2018-07-27T15:25:12.343Z,86.90
2018-07-27T15:27:42.564Z,86.50
2018-07-27T15:30:12.732Z,83.30
2018-07-27T15:32:42.887Z,83.00
2018-07-27T15:35:13.152Z,81.80
2018-07-27T15:37:43.494Z,80.90
2018-07-27T15:40:13.622Z,80.40
2018-07-27T15:42:43.867Z,78.80
2018-07-27T15:45:14.040Z,77.10
2018-07-27T15:47:44.300Z,75.10
2018-07-27T15:50:14.480Z,75.30
2018-07-27T15:52:44.606Z,75.10
2018-07-27T15:55:14.792Z,73.20
2018-07-27T15:57:45.383Z,72.70
2018-07-27T16:00:15.447Z,73.10
2018-07-27T16:02:46.200Z,72.50
2018-07-27T16:05:16.396Z,73.40
2018-07-27T16:07:46.508Z,73.10
2018-07-27T16:10:16.741Z,71.80
2018-07-27T16:12:46.812Z,71.80
2018-07-27T16:15:16.884Z,70.90
2018-07-27T16:17:46.956Z,70.70
2018-07-27T16:20:17.045Z,70.10
2018-07-27T16:25:16.864Z,70.40
2018-07-27T16:27:47.496Z,70.50
2018-07-27T16:30:17.687Z,71.30
2018-07-27T16:32:47.868Z,71.60
2018-07-27T16:35:18.054Z,70.30
2018-07-27T16:37:48.316Z,69.60
2018-07-27T16:40:18.539Z,70.00
2018-07-27T16:42:48.653Z,71.10
2018-07-27T16:45:18.758Z,72.50
2018-07-27T16:47:48.934Z,73.20
2018-07-27T16:50:19.165Z,72.90
2018-07-27T16:52:49.401Z,73.40
2018-07-27T16:55:19.548Z,73.00
2018-07-27T16:57:49.620Z,74.10
2018-07-27T17:00:19.765Z,74.70
2018-07-27T17:02:49.832Z,75.60
2018-07-27T17:05:19.999Z,76.30
2018-07-27T17:10:19.824Z,76.10
2018-07-27T17:12:50.040Z,75.80
2018-07-27T17:15:20.348Z,75.80
2018-07-27T17:17:50.494Z,76.50
2018-07-27T17:20:20.560Z,77.20
2018-07-27T17:22:50.651Z,76.90
2018-07-27T17:25:20.833Z,77.90
2018-07-27T17:27:50.812Z,77.70
2018-07-27T17:30:21.085Z,78.20
2018-07-27T17:35:20.988Z,79.50
2018-07-27T17:37:51.070Z,80.50
2018-07-27T17:40:21.248Z,81.40
2018-07-27T17:42:51.456Z,81.90
2018-07-27T17:45:21.504Z,82.40
2018-07-27T17:47:51.643Z,82.80
2018-07-27T17:50:21.731Z,82.70
2018-07-27T17:52:52.180Z,82.90
2018-07-27T17:55:22.555Z,84.40
2018-07-27T17:57:52.980Z,84.80
2018-07-27T18:00:23.179Z,85.40
2018-07-27T18:02:53.332Z,86.20
2018-07-27T18:05:23.772Z,86.90
2018-07-27T18:07:54.030Z,87.80
2018-07-27T18:10:23.952Z,88.50
2018-07-27T18:12:54.044Z,89.50
2018-07-27T18:15:24.256Z,89.90
2018-07-27T18:17:54.445Z,90.30
2018-07-27T18:20:24.648Z,90.10
2018-07-27T18:22:54.868Z,90.20
2018-07-27T18:25:24.965Z,90.50
2018-07-27T18:27:55.034Z,90.90
2018-07-27T18:30:25.196Z,90.80
2018-07-27T18:32:55.272Z,91.00
2018-07-27T18:35:25.521Z,91.00
2018-07-27T18:37:55.703Z,90.90
2018-07-27T18:40:25.824Z,90.80
2018-07-27T18:42:55.889Z,91.10
2018-07-27T18:45:25.992Z,90.90
2018-07-27T18:47:56.076Z,90.90
2018-07-27T18:50:26.176Z,91.20
2018-07-27T18:52:56.303Z,91.70
2018-07-27T18:55:26.424Z,91.80
2018-07-27T18:57:56.544Z,92.00
2018-07-27T19:00:26.623Z,92.30
2018-07-27T19:02:56.720Z,92.50
2018-07-27T19:05:26.832Z,92.70
2018-07-27T19:07:56.909Z,92.90
2018-07-27T19:10:27.004Z,93.00
2018-07-27T19:12:57.127Z,93.20
2018-07-27T19:15:27.251Z,93.30
2018-07-27T19:20:27.047Z,93.10
2018-07-27T19:22:57.132Z,93.00
2018-07-27T19:25:27.259Z,93.20
2018-07-27T19:27:57.316Z,93.10
2018-07-27T19:30:27.418Z,93.20
2018-07-27T19:32:57.578Z,93.20
2018-07-27T19:35:27.646Z,93.50
2018-07-27T19:37:57.844Z,93.60
2018-07-27T19:40:27.928Z,93.70
2018-07-27T19:42:58.052Z,93.90
2018-07-27T19:45:28.160Z,93.90
2018-07-27T19:47:58.323Z,94.00
2018-07-27T19:50:28.464Z,94.00
2018-07-27T19:52:58.556Z,94.20
2018-07-27T19:55:28.660Z,94.40
2018-07-27T19:57:58.740Z,94.60
2018-07-27T20:00:28.903Z,94.70
2018-07-27T20:02:59.020Z,94.80
2018-07-27T20:05:29.100Z,94.80
2018-07-27T20:07:59.285Z,94.90
2018-07-27T20:10:29.375Z,95.00
2018-07-27T20:12:59.466Z,95.00
2018-07-27T20:15:29.557Z,95.10
2018-07-27T20:17:59.644Z,95.20
2018-07-27T20:20:29.713Z,95.30
2018-07-27T20:22:59.920Z,95.30
2018-07-27T20:25:30.095Z,95.30
2018-07-27T20:28:00.200Z,95.40
2018-07-27T20:30:30.288Z,95.50
2018-07-27T20:33:00.376Z,95.50
2018-07-27T20:35:30.448Z,95.40
2018-07-27T20:38:00.632Z,95.60
2018-07-27T20:40:30.832Z,95.50
2018-07-27T20:43:00.960Z,95.50
2018-07-27T20:45:31.048Z,95.40
2018-07-27T20:48:01.200Z,95.40
2018-07-27T20:50:31.288Z,95.30
2018-07-27T20:53:01.388Z,95.40
2018-07-27T20:55:31.470Z,95.10
2018-07-27T20:58:01.542Z,95.30
2018-07-27T21:00:31.636Z,95.30
2018-07-27T21:03:01.792Z,94.80
2018-07-27T21:05:31.879Z,94.80
2018-07-27T21:08:01.985Z,94.80
2018-07-27T21:10:32.152Z,94.60
2018-07-27T21:13:02.268Z,94.30
2018-07-27T21:15:32.561Z,94.10
2018-07-27T21:18:02.805Z,94.00
2018-07-27T21:20:33.072Z,93.90
2018-07-27T21:23:03.517Z,94.00
2018-07-27T21:25:33.611Z,93.90
2018-07-27T21:28:03.994Z,94.00
2018-07-27T21:30:34.627Z,93.90
2018-07-27T21:33:04.733Z,93.80
2018-07-27T21:35:34.820Z,93.90
2018-07-27T21:38:04.935Z,94.00
2018-07-27T21:40:34.996Z,94.10
2018-07-27T21:43:05.216Z,94.50
2018-07-27T21:45:35.701Z,94.80
2018-07-27T21:48:06.033Z,94.90
2018-07-27T21:50:36.084Z,95.50
2018-07-27T21:55:35.937Z,96.00
2018-07-27T21:58:06.165Z,96.00
2018-07-27T22:00:36.275Z,96.50
2018-07-27T22:03:06.489Z,96.70
2018-07-27T22:05:36.564Z,96.80
2018-07-27T22:08:06.680Z,96.80
2018-07-27T22:10:36.792Z,96.80
2018-07-27T22:13:06.945Z,96.80
2018-07-27T22:15:37.019Z,96.60
2018-07-27T22:47:14.517Z,97.40
2018-07-27T22:53:05.477Z,96.90
2018-07-27T22:55:40.728Z,96.90
2018-07-27T23:30:24.018Z,98.80
